Time;durP1;ratioP1;P1;durP2;ratioP2;P2;SDS_P1;SDS_P2;PMS_P1;PMS_P2;Temp;Humidity;BMP_temperature;BMP_pressure;BME280_temperature;BME280_humidity;BME280_pressure;Samples;Min_cycle;Max_cycle;Signal;HPM_P1;HPM_P2
2023/05/14 00:01:10;;;;;;;;;;;;;;;10.26;68.21;101658.25;5001868;28;20122;-92
2023/05/14 00:03:39;;;;;;;;;;;;;;;10.17;68.61;101659.91;5009348;28;19933;-91
2023/05/14 00:06:12;;;;;;;;;;;;;;;10.20;68.62;101658.78;4970951;28;19922;-93
2023/05/14 00:08:40;;;;;;;;;;;;;;;10.15;69.48;101660.03;4995409;28;19925;-94
2023/05/14 00:11:09;;;;;;;;;;;;;;;10.15;70.02;101657.34;5019137;28;19936;-92
2023/05/14 00:13:37;;;;;;;;;;;;;;;10.08;70.28;101655.34;4996742;28;20355;-92
2023/05/14 00:16:02;;;;;;;;;;;;;;;10.10;70.41;101650.69;4987838;28;20354;-90
2023/05/14 00:18:28;;;;;;;;;;;;;;;10.08;70.46;101663.41;4991762;28;19951;-92
2023/05/14 00:21:09;;;;;;;;;;;;;;;10.04;70.56;101661.97;4989919;28;19922;-94
2023/05/14 00:23:44;;;;;;;;;;;;;;;9.94;71.60;101668.13;4994389;28;19926;-91
2023/05/14 00:26:11;;;;;;;;;;;;;;;9.93;71.62;101669.13;4997199;28;19925;-93
2023/05/14 00:28:58;;;;;;;;;;;;;;;10.04;71.47;101675.38;4999372;28;20362;-93
2023/05/14 00:31:26;;;;;;;;;;;;;;;9.99;71.59;101674.94;5016451;28;19940;-93
2023/05/14 00:33:52;;;;;;;;;;;;;;;9.93;71.88;101674.50;4984743;28;19918;-92
2023/05/14 00:36:17;;;;;;;;;;;;;;;9.93;71.70;101682.56;4972089;28;19959;-93
2023/05/14 00:38:48;;;;;;;;;;;;;;;9.94;71.70;101686.94;4996202;28;19921;-91
2023/05/14 00:41:13;;;;;;;;;;;;;;;9.86;71.78;101684.06;4995271;28;19925;-93
2023/05/14 00:43:39;;;;;;;;;;;;;;;9.91;71.46;101684.50;4975502;28;19932;-90
2023/05/14 00:46:08;;;;;;;;;;;;;;;9.90;71.42;101681.94;4992207;28;19925;-93
2023/05/14 00:48:36;;;;;;;;;;;;;;;9.80;72.19;101684.56;5011188;28;19925;-94
2023/05/14 00:51:02;;;;;;;;;;;;;;;9.82;72.51;101676.41;4989388;28;19944;-91
2023/05/14 00:53:27;;;;;;;;;;;;;;;9.76;73.22;101683.13;4997495;28;19925;-89
2023/05/14 00:55:53;;;;;;;;;;;;;;;9.79;72.82;101677.50;4977327;28;19926;-92
2023/05/14 00:58:18;;;;;;;;;;;;;;;9.81;72.68;101677.34;4980530;28;19921;-91
2023/05/14 01:00:47;;;;;;;;;;;;;;;9.72;73.26;101687.06;4981258;28;20446;-92
2023/05/14 01:03:20;;;;;;;;;;;;;;;9.73;73.48;101683.41;4993274;28;19930;-90
2023/05/14 01:05:48;;;;;;;;;;;;;;;9.71;73.94;101679.97;5007121;28;19932;-89
2023/05/14 01:08:32;;;;;;;;;;;;;;;9.72;74.18;101681.72;5018714;28;19929;-89
2023/05/14 01:11:02;;;;;;;;;;;;;;;9.69;74.09;101672.06;5010369;28;20366;-92
2023/05/14 01:14:10;;;;;;;;;;;;;;;9.78;73.32;101672.25;4993150;28;19925;-92
2023/05/14 01:16:36;;;;;;;;;;;;;;;9.73;73.51;101667.28;4988450;28;19925;-93
2023/05/14 01:19:05;;;;;;;;;;;;;;;9.70;73.46;101664.88;5010233;28;19925;-92
2023/05/14 01:21:39;;;;;;;;;;;;;;;9.70;73.10;101663.03;5009962;28;19960;-90
2023/05/14 01:24:07;;;;;;;;;;;;;;;9.73;72.58;101656.53;4983445;28;19932;-89
2023/05/14 01:26:36;;;;;;;;;;;;;;;9.72;72.13;101661.06;5015354;28;19921;-92
2023/05/14 01:29:22;;;;;;;;;;;;;;;9.54;72.35;101651.88;5003042;28;19928;-90
2023/05/14 01:31:48;;;;;;;;;;;;;;;9.59;72.08;101664.91;4988803;28;19948;-92
2023/05/14 01:34:15;;;;;;;;;;;;;;;9.57;71.97;101661.50;4975233;28;19979;-92
2023/05/14 01:36:42;;;;;;;;;;;;;;;9.60;71.30;101663.94;4990891;28;20364;-91
2023/05/14 01:39:10;;;;;;;;;;;;;;;9.63;70.85;101661.84;5007123;28;19952;-90
2023/05/14 01:41:38;;;;;;;;;;;;;;;9.66;70.57;101655.38;4989994;28;20324;-93
2023/05/14 01:44:03;;;;;;;;;;;;;;;9.64;70.40;101662.69;4990835;28;19929;-90
2023/05/14 01:46:32;;;;;;;;;;;;;;;9.64;70.32;101663.53;4973302;28;19948;-91
2023/05/14 01:48:58;;;;;;;;;;;;;;;9.66;70.27;101666.09;5008562;28;20012;-92
2023/05/14 01:51:25;;;;;;;;;;;;;;;9.62;70.06;101670.91;5003634;28;20082;-91
2023/05/14 01:53:50;;;;;;;;;;;;;;;9.61;69.75;101669.19;4993238;28;19930;-90
2023/05/14 01:56:24;;;;;;;;;;;;;;;9.64;68.35;101663.53;4993248;28;20639;-93
2023/05/14 01:58:51;;;;;;;;;;;;;;;9.57;67.50;101662.34;4972052;28;20376;-92
2023/05/14 02:01:21;;;;;;;;;;;;;;;9.54;67.23;101659.09;5006019;28;19925;-92
2023/05/14 02:03:47;;;;;;;;;;;;;;;9.52;66.83;101661.91;4989658;28;20001;-92
2023/05/14 02:06:13;;;;;;;;;;;;;;;9.45;67.33;101661.56;4990159;28;20362;-91
2023/05/14 02:08:41;;;;;;;;;;;;;;;9.44;67.75;101667.06;4974688;28;19982;-90
2023/05/14 02:11:06;;;;;;;;;;;;;;;9.46;68.31;101676.69;4975312;28;20310;-91
2023/05/14 02:13:32;;;;;;;;;;;;;;;9.46;68.91;101678.53;5005542;28;19999;-91
2023/05/14 02:15:58;;;;;;;;;;;;;;;9.40;70.08;101671.00;5006909;28;20360;-89
2023/05/14 02:18:23;;;;;;;;;;;;;;;9.40;69.79;101671.00;4974188;28;20036;-93
2023/05/14 02:20:49;;;;;;;;;;;;;;;9.40;70.15;101677.22;5006468;28;19921;-91
2023/05/14 02:23:15;;;;;;;;;;;;;;;9.35;72.08;101678.59;5007044;28;20016;-92
2023/05/14 02:25:41;;;;;;;;;;;;;;;9.33;73.44;101681.38;4990232;28;20029;-92
2023/05/14 02:28:08;;;;;;;;;;;;;;;9.37;73.49;101671.25;4991769;28;19926;-93
2023/05/14 02:30:33;;;;;;;;;;;;;;;9.41;73.83;101678.94;4999619;28;19933;-90
2023/05/14 02:33:00;;;;;;;;;;;;;;;9.40;74.26;101674.53;4990964;28;19980;-93
2023/05/14 02:35:26;;;;;;;;;;;;;;;9.40;75.56;101665.63;4990053;28;19929;-90
2023/05/14 02:37:53;;;;;;;;;;;;;;;9.32;77.22;101668.97;4993024;28;20367;-90
2023/05/14 02:40:18;;;;;;;;;;;;;;;9.30;77.80;101676.28;4989489;28;19925;-90
2023/05/14 02:42:46;;;;;;;;;;;;;;;9.14;78.74;101682.06;4990425;28;20331;-92
2023/05/14 02:45:11;;;;;;;;;;;;;;;9.12;78.61;101684.00;4976678;28;19964;-92
2023/05/14 02:47:37;;;;;;;;;;;;;;;9.19;78.00;101689.72;4990595;28;20376;-90
2023/05/14 02:50:05;;;;;;;;;;;;;;;9.18;77.58;101688.88;4972959;28;20261;-91
2023/05/14 02:52:32;;;;;;;;;;;;;;;9.20;76.69;101691.44;4992714;28;20057;-91
2023/05/14 02:54:58;;;;;;;;;;;;;;;9.23;75.63;101696.56;4984299;28;19921;-90
2023/05/14 02:57:24;;;;;;;;;;;;;;;9.25;74.41;101692.78;4974368;28;19930;-90
2023/05/14 02:59:50;;;;;;;;;;;;;;;9.24;72.37;101690.19;4992856;28;20417;-93
2023/05/14 03:02:16;;;;;;;;;;;;;;;9.29;70.18;101685.28;5007309;28;19926;-92
2023/05/14 03:04:42;;;;;;;;;;;;;;;9.32;68.87;101685.06;4974136;28;19928;-89
2023/05/14 03:07:07;;;;;;;;;;;;;;;9.34;67.93;101682.22;5009648;28;20008;-90
2023/05/14 03:09:35;;;;;;;;;;;;;;;9.34;67.20;101685.78;4978131;28;19999;-91
2023/05/14 03:12:01;;;;;;;;;;;;;;;9.35;66.60;101698.22;5001635;28;19935;-90
2023/05/14 03:14:27;;;;;;;;;;;;;;;9.27;67.69;101703.34;4996858;28;20037;-92
2023/05/14 03:16:53;;;;;;;;;;;;;;;9.37;68.12;101708.84;4988591;28;19980;-93
2023/05/14 03:19:19;;;;;;;;;;;;;;;9.44;68.63;101702.81;4975564;28;20278;-90
2023/05/14 03:21:45;;;;;;;;;;;;;;;9.52;70.35;101710.22;4973980;28;20648;-91
2023/05/14 03:24:10;;;;;;;;;;;;;;;9.56;71.54;101702.78;4987443;28;20019;-92
2023/05/14 03:26:36;;;;;;;;;;;;;;;9.65;71.69;101697.47;4975071;28;19944;-91
2023/05/14 03:29:02;;;;;;;;;;;;;;;9.76;71.40;101699.25;5012870;28;19925;-92
2023/05/14 03:31:28;;;;;;;;;;;;;;;9.86;71.66;101710.06;4976488;28;20404;-92
2023/05/14 03:33:58;;;;;;;;;;;;;;;9.85;72.59;101702.97;5005106;28;19918;-91
2023/05/14 03:36:26;;;;;;;;;;;;;;;9.96;72.87;101710.13;4990785;28;19948;-90
2023/05/14 03:38:52;;;;;;;;;;;;;;;10.04;73.33;101707.63;4985139;28;19918;-88
2023/05/14 03:41:18;;;;;;;;;;;;;;;10.14;73.06;101716.63;4992854;28;19925;-90
2023/05/14 03:43:44;;;;;;;;;;;;;;;10.21;72.75;101717.78;4991398;28;20409;-89
2023/05/14 03:46:09;;;;;;;;;;;;;;;10.25;71.83;101719.22;4993751;28;19925;-90
2023/05/14 03:48:34;;;;;;;;;;;;;;;10.33;70.92;101702.47;4979107;28;19921;-91
2023/05/14 03:51:01;;;;;;;;;;;;;;;10.45;70.40;101698.69;5011192;28;20024;-89
2023/05/14 03:53:27;;;;;;;;;;;;;;;10.54;69.43;101689.81;4993315;28;19972;-91
2023/05/14 03:55:52;;;;;;;;;;;;;;;10.71;68.65;101696.38;4995523;28;19921;-90
2023/05/14 03:58:18;;;;;;;;;;;;;;;10.84;68.52;101706.03;4978260;28;19922;-89
2023/05/14 04:00:43;;;;;;;;;;;;;;;10.99;68.15;101710.06;4980803;28;20366;-90
2023/05/14 04:03:08;;;;;;;;;;;;;;;11.14;67.61;101714.06;4977927;28;20417;-90
2023/05/14 04:05:34;;;;;;;;;;;;;;;11.26;66.90;101713.91;4994557;28;20370;-90
2023/05/14 04:08:01;;;;;;;;;;;;;;;11.34;66.64;101722.16;4994073;28;19925;-90
2023/05/14 04:10:27;;;;;;;;;;;;;;;11.44;66.22;101720.31;5012148;28;19932;-90
2023/05/14 04:12:54;;;;;;;;;;;;;;;11.59;66.10;101723.47;5010828;28;19972;-90
2023/05/14 04:15:19;;;;;;;;;;;;;;;11.71;66.30;101722.31;4997081;28;19922;-91
2023/05/14 04:17:45;;;;;;;;;;;;;;;11.84;65.70;101717.47;4987632;28;20253;-90
2023/05/14 04:20:11;;;;;;;;;;;;;;;11.97;65.31;101717.22;5006220;28;19972;-90
2023/05/14 04:22:37;;;;;;;;;;;;;;;12.13;63.89;101711.25;4993866;28;20299;-90
2023/05/14 04:25:04;;;;;;;;;;;;;;;12.32;61.89;101714.88;4992406;28;19952;-90
2023/05/14 04:27:30;;;;;;;;;;;;;;;12.43;61.26;101710.16;4994226;28;19930;-90
2023/05/14 04:29:55;;;;;;;;;;;;;;;12.67;59.71;101714.19;4980813;28;19988;-90
2023/05/14 04:32:21;;;;;;;;;;;;;;;12.91;60.71;101710.91;4980976;28;19971;-88
2023/05/14 04:34:46;;;;;;;;;;;;;;;13.26;61.57;101715.53;4993196;28;19992;-92
2023/05/14 04:37:14;;;;;;;;;;;;;;;13.50;62.29;101711.41;4997459;28;19922;-88
2023/05/14 04:39:41;;;;;;;;;;;;;;;13.86;61.89;101700.56;4973610;28;20137;-90
2023/05/14 04:42:12;;;;;;;;;;;;;;;14.24;61.38;101706.59;4993020;28;19996;-91
2023/05/14 04:44:38;;;;;;;;;;;;;;;14.48;61.41;101716.69;5011287;28;20012;-91
2023/05/14 04:47:05;;;;;;;;;;;;;;;14.70;59.90;101707.19;4973587;28;19929;-90
2023/05/14 04:49:33;;;;;;;;;;;;;;;15.01;59.42;101712.03;4990857;28;19929;-90
2023/05/14 04:52:03;;;;;;;;;;;;;;;15.43;58.82;101717.41;5010344;28;20310;-91
2023/05/14 04:54:31;;;;;;;;;;;;;;;15.79;58.10;101712.53;4981773;28;19930;-90
2023/05/14 04:56:56;;;;;;;;;;;;;;;16.06;56.37;101718.63;4993608;28;20393;-90
2023/05/14 04:59:22;;;;;;;;;;;;;;;16.25;55.88;101712.81;4992863;28;19921;-90
2023/05/14 05:01:50;;;;;;;;;;;;;;;16.51;55.15;101706.31;4992965;28;20290;-91
2023/05/14 05:04:17;;;;;;;;;;;;;;;16.75;54.67;101699.94;5010839;28;19944;-90
2023/05/14 05:06:42;;;;;;;;;;;;;;;16.81;54.19;101699.28;4977350;28;20395;-90
2023/05/14 05:09:12;;;;;;;;;;;;;;;17.16;54.07;101698.91;4992918;28;19926;-91
2023/05/14 05:11:38;;;;;;;;;;;;;;;17.14;53.69;101706.38;5010043;28;19922;-89
2023/05/14 05:14:04;;;;;;;;;;;;;;;17.08;53.96;101708.78;4994151;28;20244;-90
2023/05/14 05:16:29;;;;;;;;;;;;;;;17.33;53.83;101705.09;4976941;28;19921;-90
2023/05/14 05:18:56;;;;;;;;;;;;;;;17.52;53.60;101710.91;4992573;28;20281;-89
2023/05/14 05:21:22;;;;;;;;;;;;;;;17.63;53.97;101711.50;5008961;28;19984;-90
2023/05/14 05:23:49;;;;;;;;;;;;;;;17.59;54.68;101702.03;4991401;28;19930;-91
2023/05/14 05:26:14;;;;;;;;;;;;;;;17.40;55.40;101701.47;5011482;28;19926;-88
2023/05/14 05:28:41;;;;;;;;;;;;;;;17.54;54.84;101701.72;4991753;28;19929;-89
2023/05/14 05:31:07;;;;;;;;;;;;;;;17.60;55.21;101709.97;4995382;28;19961;-90
2023/05/14 05:33:34;;;;;;;;;;;;;;;17.84;54.92;101710.84;4993797;28;19922;-91
2023/05/14 05:35:59;;;;;;;;;;;;;;;18.00;53.53;101698.97;4973808;28;19944;-87
2023/05/14 05:38:25;;;;;;;;;;;;;;;18.14;53.80;101700.88;5012015;28;20889;-89
2023/05/14 05:40:51;;;;;;;;;;;;;;;18.28;53.66;101705.47;4996437;28;20362;-90
2023/05/14 05:43:16;;;;;;;;;;;;;;;18.33;51.52;101703.06;4977144;28;20028;-89
2023/05/14 05:45:41;;;;;;;;;;;;;;;18.60;51.30;101694.41;4984496;28;19921;-89
2023/05/14 05:48:09;;;;;;;;;;;;;;;18.80;49.75;101694.69;4995816;28;20090;-90
2023/05/14 05:50:34;;;;;;;;;;;;;;;19.10;49.25;101698.22;5010885;28;19968;-88
2023/05/14 05:52:59;;;;;;;;;;;;;;;19.30;48.70;101704.72;4990986;28;19967;-89
2023/05/14 05:55:28;;;;;;;;;;;;;;;19.27;48.29;101701.53;4988062;28;19932;-90
2023/05/14 05:58:01;;;;;;;;;;;;;;;19.35;46.29;101702.25;4990790;28;19944;-93
2023/05/14 06:00:26;;;;;;;;;;;;;;;19.49;46.58;101703.25;5002616;28;20046;-87
2023/05/14 06:02:52;;;;;;;;;;;;;;;19.67;45.31;101700.06;4969119;28;19925;-92
2023/05/14 06:05:18;;;;;;;;;;;;;;;19.73;47.04;101687.56;5011689;28;20064;-87
2023/05/14 06:07:43;;;;;;;;;;;;;;;19.76;45.94;101695.34;4995320;28;20421;-89
2023/05/14 06:10:18;;;;;;;;;;;;;;;19.80;46.20;101702.09;4994594;28;19957;-91
2023/05/14 06:12:59;;;;;;;;;;;;;;;19.82;45.63;101694.56;5009547;28;19929;-93
2023/05/14 06:15:28;;;;;;;;;;;;;;;19.60;43.48;101712.81;4977661;28;20366;-93
2023/05/14 06:17:59;;;;;;;;;;;;;;;19.25;41.87;101712.66;4987621;28;19921;-89
2023/05/14 06:20:27;;;;;;;;;;;;;;;19.10;40.64;101715.41;4987944;28;19928;-89
2023/05/14 06:22:52;;;;;;;;;;;;;;;19.41;41.92;101719.75;4996683;28;19922;-89
2023/05/14 06:25:18;;;;;;;;;;;;;;;19.46;40.31;101713.72;5009850;28;20364;-90
2023/05/14 06:27:46;;;;;;;;;;;;;;;19.50;42.31;101710.41;4988681;28;19921;-86
2023/05/14 06:30:12;;;;;;;;;;;;;;;19.41;42.08;101708.84;4995658;28;19921;-89
2023/05/14 06:32:38;;;;;;;;;;;;;;;19.68;42.39;101715.41;5014466;28;20496;-89
2023/05/14 06:35:03;;;;;;;;;;;;;;;19.59;42.19;101713.81;4992001;28;20352;-92
2023/05/14 06:37:31;;;;;;;;;;;;;;;19.75;42.63;101712.75;5008221;28;19925;-90
2023/05/14 06:39:56;;;;;;;;;;;;;;;19.81;42.88;101712.00;5010457;28;19988;-91
2023/05/14 06:42:22;;;;;;;;;;;;;;;20.04;42.13;101719.91;4990976;28;19921;-90
2023/05/14 06:44:47;;;;;;;;;;;;;;;19.60;38.88;101724.56;4988923;28;19979;-88
2023/05/14 06:47:13;;;;;;;;;;;;;;;19.82;35.60;101719.13;5007719;28;19979;-89
2023/05/14 06:49:39;;;;;;;;;;;;;;;19.98;36.44;101718.00;5005607;28;20252;-87
2023/05/14 06:52:07;;;;;;;;;;;;;;;20.22;36.06;101723.00;5010391;28;19941;-95
2023/05/14 06:54:41;;;;;;;;;;;;;;;20.45;36.04;101725.47;4994697;28;19926;-90
2023/05/14 06:57:07;;;;;;;;;;;;;;;20.86;33.99;101721.09;5007205;28;20346;-90
2023/05/14 06:59:33;;;;;;;;;;;;;;;20.98;32.33;101724.09;4987741;28;20014;-89
2023/05/14 07:01:58;;;;;;;;;;;;;;;21.09;33.25;101728.97;4973543;28;20014;-92
2023/05/14 07:04:26;;;;;;;;;;;;;;;21.30;33.13;101725.25;4982346;28;19922;-92
2023/05/14 07:06:52;;;;;;;;;;;;;;;21.65;32.98;101733.34;4992162;28;19926;-91
2023/05/14 07:09:18;;;;;;;;;;;;;;;22.16;31.99;101721.78;4989593;28;20028;-89
2023/05/14 07:11:50;;;;;;;;;;;;;;;22.61;30.76;101723.84;5011351;28;20493;-92
2023/05/14 07:14:17;;;;;;;;;;;;;;;22.76;30.09;101727.19;5012293;28;19975;-94
2023/05/14 07:16:46;;;;;;;;;;;;;;;22.34;31.00;101732.97;4989059;28;19932;-91
2023/05/14 07:19:12;;;;;;;;;;;;;;;22.67;30.69;101728.47;5006229;28;19925;-91
2023/05/14 07:21:40;;;;;;;;;;;;;;;22.32;31.12;101736.97;4993745;28;19936;-91
2023/05/14 07:24:29;;;;;;;;;;;;;;;22.68;31.80;101735.63;5016736;28;19951;-96
2023/05/14 07:27:36;;;;;;;;;;;;;;;22.63;31.65;101735.44;5017392;28;19924;-95
2023/05/14 07:30:14;;;;;;;;;;;;;;;23.02;31.58;101747.38;5022818;28;20004;-93
2023/05/14 07:32:46;;;;;;;;;;;;;;;23.48;26.90;101738.84;5024177;28;19937;-96
2023/05/14 07:35:11;;;;;;;;;;;;;;;23.55;29.65;101749.81;4978235;28;19921;-91
2023/05/14 07:37:38;;;;;;;;;;;;;;;23.82;30.24;101752.41;4991363;28;20340;-89
2023/05/14 07:40:05;;;;;;;;;;;;;;;23.73;29.62;101752.63;4992546;28;19987;-89
2023/05/14 07:42:33;;;;;;;;;;;;;;;24.04;29.41;101739.97;4980650;28;19934;-86
2023/05/14 07:44:59;;;;;;;;;;;;;;;23.74;30.61;101740.66;4989554;28;19929;-86
2023/05/14 07:47:24;;;;;;;;;;;;;;;23.88;31.38;101741.38;5007211;28;20023;-89
2023/05/14 07:49:53;;;;;;;;;;;;;;;23.83;31.54;101743.09;4989546;28;19949;-91
2023/05/14 07:52:25;;;;;;;;;;;;;;;23.95;30.98;101735.81;5004521;28;20061;-92
2023/05/14 07:54:51;;;;;;;;;;;;;;;23.74;30.96;101743.38;5010427;28;19925;-87
2023/05/14 07:57:18;;;;;;;;;;;;;;;23.65;31.27;101746.56;4981878;28;20040;-91
2023/05/14 07:59:48;;;;;;;;;;;;;;;23.53;29.68;101750.03;4991760;28;19922;-90
2023/05/14 08:02:15;;;;;;;;;;;;;;;23.95;27.66;101757.78;4998475;28;19999;-88
2023/05/14 08:04:43;;;;;;;;;;;;;;;24.08;27.71;101752.19;5007304;28;19921;-85
2023/05/14 08:07:08;;;;;;;;;;;;;;;24.10;27.76;101750.06;4977644;28;19976;-83
2023/05/14 08:09:35;;;;;;;;;;;;;;;24.58;27.32;101757.69;4990675;28;20055;-87
2023/05/14 08:12:00;;;;;;;;;;;;;;;24.96;27.77;101756.59;4990509;28;19953;-88
2023/05/14 08:14:26;;;;;;;;;;;;;;;24.98;25.33;101757.22;5019071;28;19925;-87
2023/05/14 08:16:51;;;;;;;;;;;;;;;25.44;26.75;101761.28;5013112;28;19922;-90
2023/05/14 08:19:17;;;;;;;;;;;;;;;25.61;25.58;101757.84;4977261;28;19956;-91
2023/05/14 08:21:43;;;;;;;;;;;;;;;25.98;26.89;101766.00;5010110;28;20674;-88
2023/05/14 08:24:11;;;;;;;;;;;;;;;26.11;26.06;101760.28;4994249;28;20298;-92
2023/05/14 08:26:37;;;;;;;;;;;;;;;25.84;28.91;101757.91;4975705;28;19988;-89
2023/05/14 08:29:03;;;;;;;;;;;;;;;25.31;30.22;101749.59;4991739;28;20275;-89
2023/05/14 08:31:28;;;;;;;;;;;;;;;25.69;28.37;101747.34;5009576;28;20051;-90
2023/05/14 08:33:54;;;;;;;;;;;;;;;25.57;28.62;101749.25;5015217;28;20378;-88
2023/05/14 08:36:20;;;;;;;;;;;;;;;25.98;27.72;101744.81;4995861;28;20366;-88
2023/05/14 08:38:45;;;;;;;;;;;;;;;25.23;28.18;101732.34;4995953;28;20313;-89
2023/05/14 08:41:13;;;;;;;;;;;;;;;25.82;27.77;101740.78;4986227;28;20386;-91
2023/05/14 08:43:56;;;;;;;;;;;;;;;26.28;27.19;101727.34;4994642;28;19922;-91
2023/05/14 08:46:32;;;;;;;;;;;;;;;25.53;26.37;101726.00;5012059;28;19960;-92
2023/05/14 08:49:05;;;;;;;;;;;;;;;25.94;26.49;101723.47;4999883;28;19964;-95
2023/05/14 08:51:30;;;;;;;;;;;;;;;26.59;25.60;101717.84;4981787;28;19917;-94
2023/05/14 08:54:04;;;;;;;;;;;;;;;26.13;25.13;101711.28;4986186;28;19940;-95
2023/05/14 08:56:37;;;;;;;;;;;;;;;26.00;23.59;101715.09;5002650;28;19917;-93
2023/05/14 08:59:03;;;;;;;;;;;;;;;25.58;27.13;101723.38;4992130;28;19977;-89
2023/05/14 09:01:29;;;;;;;;;;;;;;;25.97;25.94;101725.78;4989969;28;19917;-89
2023/05/14 09:03:55;;;;;;;;;;;;;;;25.62;25.76;101724.59;4990952;28;19931;-89
2023/05/14 09:06:30;;;;;;;;;;;;;;;26.00;26.11;101726.13;5012471;28;19921;-94
2023/05/14 09:08:58;;;;;;;;;;;;;;;26.58;26.18;101721.72;5010599;28;20000;-93
2023/05/14 09:11:25;;;;;;;;;;;;;;;26.38;25.81;101716.53;5016988;28;20005;-90
2023/05/14 09:13:51;;;;;;;;;;;;;;;26.92;24.45;101717.16;4990923;28;20008;-92
2023/05/14 09:16:21;;;;;;;;;;;;;;;27.50;24.52;101718.03;4997190;28;19922;-91
2023/05/14 09:19:02;;;;;;;;;;;;;;;27.42;24.78;101710.16;5012342;28;19921;-89
2023/05/14 09:21:30;;;;;;;;;;;;;;;26.03;25.26;101722.88;4994530;28;19977;-88
2023/05/14 09:24:10;;;;;;;;;;;;;;;25.09;26.28;101721.72;5013437;28;19922;-89
2023/05/14 09:26:36;;;;;;;;;;;;;;;24.35;29.49;101725.31;5014425;28;19927;-88
2023/05/14 09:29:01;;;;;;;;;;;;;;;24.83;29.00;101716.34;5013672;28;19921;-88
2023/05/14 09:31:32;;;;;;;;;;;;;;;24.14;29.14;101718.34;5009162;28;19982;-91
2023/05/14 09:34:01;;;;;;;;;;;;;;;23.96;29.74;101718.28;5019504;28;20004;-92
2023/05/14 09:36:26;;;;;;;;;;;;;;;23.64;31.14;101715.53;5007194;28;19948;-91
2023/05/14 09:38:52;;;;;;;;;;;;;;;23.04;32.27;101712.31;4988745;28;20425;-88
2023/05/14 09:41:18;;;;;;;;;;;;;;;23.32;33.56;101721.03;5031372;28;19932;-87
2023/05/14 09:43:45;;;;;;;;;;;;;;;23.30;33.07;101728.66;5024245;28;19928;-91
2023/05/14 09:46:13;;;;;;;;;;;;;;;23.39;32.79;101735.56;5014799;28;19991;-88
2023/05/14 09:48:58;;;;;;;;;;;;;;;22.26;37.17;101748.75;4997174;28;20006;-90
2023/05/14 09:54:26;;;;;;;;;;;;;;;21.91;37.37;101748.94;5007113;28;20011;-90
2023/05/14 09:57:02;;;;;;;;;;;;;;;21.95;38.09;101742.00;4975115;28;19918;-90
2023/05/14 09:59:58;;;;;;;;;;;;;;;22.27;37.79;101740.34;4976300;28;19922;-91
2023/05/14 10:02:25;;;;;;;;;;;;;;;21.88;36.60;101743.91;4992231;28;19968;-90
2023/05/14 10:04:56;;;;;;;;;;;;;;;21.27;36.10;101744.81;4974478;28;20029;-90
2023/05/14 10:07:25;;;;;;;;;;;;;;;21.32;38.54;101731.34;4992143;28;19949;-90
2023/05/14 10:10:04;;;;;;;;;;;;;;;21.08;40.55;101736.31;4978166;28;19921;-90
2023/05/14 10:15:40;;;;;;;;;;;;;;;20.57;41.35;101733.13;5012452;28;20070;-90
2023/05/14 10:18:13;;;;;;;;;;;;;;;19.89;40.36;101736.38;5009228;28;20406;-89
2023/05/14 10:20:38;;;;;;;;;;;;;;;19.81;43.56;101739.28;4978980;28;20321;-89
2023/05/14 10:23:28;;;;;;;;;;;;;;;19.67;47.03;101742.88;5010401;28;19962;-90
2023/05/14 10:29:01;;;;;;;;;;;;;;;19.47;44.44;101729.88;5013306;28;20372;-90
2023/05/14 10:34:42;;;;;;;;;;;;;;;19.32;47.82;101723.63;5013868;28;20008;-89
2023/05/14 10:37:23;;;;;;;;;;;;;;;19.11;47.99;101724.44;5011314;28;20366;-89
2023/05/14 10:39:58;;;;;;;;;;;;;;;18.72;43.37;101729.16;4993942;28;20357;-89
2023/05/14 10:42:39;;;;;;;;;;;;;;;18.96;47.65;101724.47;4979492;28;19917;-89
2023/05/14 10:45:09;;;;;;;;;;;;;;;19.09;49.55;101723.78;4991619;28;19941;-90
2023/05/14 10:47:34;;;;;;;;;;;;;;;19.35;48.69;101734.16;5009761;28;19953;-89
2023/05/14 10:50:04;;;;;;;;;;;;;;;19.19;47.19;101741.50;4992509;28;20250;-87
2023/05/14 10:55:52;;;;;;;;;;;;;;;19.61;44.26;101733.56;5002425;28;19925;-90
2023/05/14 11:01:10;;;;;;;;;;;;;;;19.97;39.10;101728.06;5011228;28;19932;-89
2023/05/14 11:03:44;;;;;;;;;;;;;;;20.13;40.12;101726.09;4978887;28;19928;-91
2023/05/14 11:06:10;;;;;;;;;;;;;;;20.32;40.81;101722.69;5010667;28;20348;-90
2023/05/14 11:08:35;;;;;;;;;;;;;;;20.67;37.50;101728.13;4995767;28;19926;-91
2023/05/14 11:11:01;;;;;;;;;;;;;;;20.54;40.57;101733.53;4984054;28;19937;-90
2023/05/14 11:16:31;;;;;;;;;;;;;;;20.41;38.96;101721.44;5001588;28;19921;-91
2023/05/14 11:19:04;;;;;;;;;;;;;;;20.57;38.75;101716.75;5011478;28;20258;-90
2023/05/14 11:21:31;;;;;;;;;;;;;;;20.80;37.98;101706.34;4988363;28;19924;-90
2023/05/14 11:23:58;;;;;;;;;;;;;;;20.47;38.43;101706.16;4977624;28;19928;-88
2023/05/14 11:29:28;;;;;;;;;;;;;;;20.78;35.22;101715.81;5019707;28;19924;-93
2023/05/14 11:31:53;;;;;;;;;;;;;;;20.81;31.06;101702.59;5011513;28;19975;-88
2023/05/14 11:34:20;;;;;;;;;;;;;;;20.86;31.99;101693.75;4993702;28;19981;-94
2023/05/14 11:36:49;;;;;;;;;;;;;;;21.04;32.23;101691.31;5015778;28;19945;-91
2023/05/14 11:39:19;;;;;;;;;;;;;;;21.19;31.94;101693.88;5001018;28;20083;-92
2023/05/14 11:41:45;;;;;;;;;;;;;;;21.11;33.12;101680.38;5011103;28;19997;-92
2023/05/14 11:44:12;;;;;;;;;;;;;;;21.19;33.63;101677.47;5029178;28;19972;-92
2023/05/14 11:46:37;;;;;;;;;;;;;;;20.84;36.04;101663.91;5002592;28;19944;-91
2023/05/14 11:49:06;;;;;;;;;;;;;;;20.61;36.53;101663.41;4977143;28;20573;-92
2023/05/14 11:51:32;;;;;;;;;;;;;;;20.64;38.98;101663.81;4991564;28;19940;-89
2023/05/14 11:54:10;;;;;;;;;;;;;;;20.27;38.12;101662.34;4976153;28;20012;-93
2023/05/14 11:56:41;;;;;;;;;;;;;;;19.81;38.39;101649.22;5010434;28;20122;-90
2023/05/14 11:59:06;;;;;;;;;;;;;;;20.14;38.39;101634.97;4996598;28;19975;-92
2023/05/14 12:01:41;;;;;;;;;;;;;;;20.38;39.30;101633.63;4995928;28;20403;-89
2023/05/14 12:04:06;;;;;;;;;;;;;;;20.31;41.17;101622.66;5013218;28;19951;-90
2023/05/14 12:06:32;;;;;;;;;;;;;;;20.34;43.08;101613.22;4991018;28;19917;-88
2023/05/14 12:09:00;;;;;;;;;;;;;;;20.52;39.16;101613.53;4994583;28;19925;-87
2023/05/14 12:11:31;;;;;;;;;;;;;;;20.02;43.38;101610.13;5017434;28;19926;-91
2023/05/14 12:14:01;;;;;;;;;;;;;;;19.71;42.98;101611.34;5014113;28;19928;-96
2023/05/14 12:16:32;;;;;;;;;;;;;;;19.75;43.40;101606.34;4996620;28;19918;-89
2023/05/14 12:18:58;;;;;;;;;;;;;;;19.03;42.95;101610.91;5013326;28;20024;-93
2023/05/14 12:21:25;;;;;;;;;;;;;;;19.22;44.22;101608.59;4999443;28;19961;-94
2023/05/14 12:23:57;;;;;;;;;;;;;;;19.58;53.67;101620.25;4982987;28;20298;-88
2023/05/14 12:26:26;;;;;;;;;;;;;;;20.06;48.96;101607.81;4981831;28;19966;-90
2023/05/14 12:28:56;;;;;;;;;;;;;;;20.20;45.10;101601.38;5020143;28;19917;-89
2023/05/14 12:31:31;;;;;;;;;;;;;;;19.96;44.75;101606.28;5000254;28;20003;-90
2023/05/14 12:33:56;;;;;;;;;;;;;;;20.13;45.52;101606.81;4995579;28;20223;-89
2023/05/14 12:36:22;;;;;;;;;;;;;;;20.33;45.21;101600.63;4994455;28;19953;-91
2023/05/14 12:38:48;;;;;;;;;;;;;;;20.37;45.13;101602.75;4992974;28;19921;-90
2023/05/14 12:41:15;;;;;;;;;;;;;;;20.19;45.10;101605.16;5013442;28;19982;-93
2023/05/14 12:43:43;;;;;;;;;;;;;;;19.88;45.46;101606.47;4992238;28;20090;-90
2023/05/14 12:46:10;;;;;;;;;;;;;;;19.38;48.39;101613.78;5010803;28;20413;-88
2023/05/14 12:48:35;;;;;;;;;;;;;;;19.55;48.19;101614.34;5016649;28;20023;-89
2023/05/14 12:51:03;;;;;;;;;;;;;;;19.26;46.77;101605.28;4992711;28;20036;-91
2023/05/14 12:53:29;;;;;;;;;;;;;;;19.28;47.06;101605.94;5012091;28;19925;-90
2023/05/14 12:55:54;;;;;;;;;;;;;;;19.35;47.16;101608.72;4976613;28;19945;-89
2023/05/14 12:58:23;;;;;;;;;;;;;;;19.65;47.00;101608.56;5011932;28;20352;-89
2023/05/14 13:00:52;;;;;;;;;;;;;;;19.99;47.60;101603.19;4992077;28;19937;-90
2023/05/14 13:03:18;;;;;;;;;;;;;;;20.01;45.45;101587.41;4988319;28;20092;-93
2023/05/14 13:05:48;;;;;;;;;;;;;;;20.33;45.19;101576.03;4972733;28;19993;-94
2023/05/14 13:08:16;;;;;;;;;;;;;;;20.39;43.79;101589.75;4994679;28;19921;-91